Time;durP1;ratioP1;P1;durP2;ratioP2;P2;SDS_P1;SDS_P2;PMS_P1;PMS_P2;Temp;Humidity;BMP_temperature;BMP_pressure;BME280_temperature;BME280_humidity;BME280_pressure;Samples;Min_cycle;Max_cycle;Signal;HPM_P1;HPM_P2
2023/04/24 00:00:12;;;;;;;0.80;0.60;;;;;;;14.53;74.63;98446.53;331371;29;4561;-73
2023/04/24 00:00:24;;;;;;;0.70;0.50;;;;;;;14.54;74.64;98448.19;326338;29;17214;-73
2023/04/24 00:00:37;;;;;;;1.15;0.68;;;;;;;14.53;74.74;98449.16;330575;29;4561;-73
2023/04/24 00:00:50;;;;;;;1.02;0.60;;;;;;;14.52;74.70;98452.69;327205;29;17730;-73
2023/04/24 00:01:02;;;;;;;1.10;0.60;;;;;;;14.51;74.50;98446.66;329700;29;4653;-73
2023/04/24 00:01:15;;;;;;;1.08;0.63;;;;;;;14.52;74.40;98444.84;328259;29;18131;-73
2023/04/24 00:01:28;;;;;;;1.00;0.70;;;;;;;14.50;74.59;98444.13;331952;29;5320;-73
2023/04/24 00:01:42;;;;;;;0.93;0.73;;;;;;;14.48;74.77;98448.63;328906;29;18134;-73
2023/04/24 00:01:55;;;;;;;2.00;0.70;;;;;;;14.47;75.01;98446.97;329078;29;17605;-73
2023/04/24 00:02:09;;;;;;;2.20;0.70;;;;;;;14.45;75.16;98447.06;332963;29;4676;-73
2023/04/24 00:02:21;;;;;;;1.08;0.70;;;;;;;14.44;75.68;98455.00;330237;29;17592;-73
2023/04/24 00:02:34;;;;;;;1.00;0.70;;;;;;;14.44;75.72;98449.78;329459;29;17972;-73
2023/04/24 00:02:46;;;;;;;1.10;0.63;;;;;;;14.45;75.60;98448.84;331712;29;5342;-73
2023/04/24 00:02:59;;;;;;;2.13;0.82;;;;;;;14.44;74.71;98450.59;330089;29;18171;-73
2023/04/24 00:03:13;;;;;;;4.45;1.00;;;;;;;14.44;75.20;98449.78;327389;29;5303;-73
2023/04/24 00:03:27;;;;;;;3.83;1.02;;;;;;;14.43;75.23;98448.09;330175;29;17993;-73
2023/04/24 00:03:40;;;;;;;2.45;0.75;;;;;;;14.45;75.30;98443.63;330872;29;17869;-73
2023/04/24 00:03:52;;;;;;;1.02;0.70;;;;;;;14.44;75.35;98455.81;333960;29;4694;-73
2023/04/24 00:04:06;;;;;;;1.40;0.70;;;;;;;14.45;75.27;98449.69;330343;29;18094;-73
2023/04/24 00:04:19;;;;;;;2.80;0.80;;;;;;;14.48;75.45;98451.25;330737;29;17712;-73
2023/04/24 00:04:31;;;;;;;3.13;0.80;;;;;;;14.50;75.11;98451.97;327829;29;4694;-73
2023/04/24 00:04:44;;;;;;;2.60;0.85;;;;;;;14.48;74.95;98446.84;328012;29;18285;-73
2023/04/24 00:05:02;;;;;;;2.42;0.93;;;;;;;14.49;75.40;98451.13;330413;29;9840;-73
2023/04/24 00:05:15;;;;;;;1.50;0.90;;;;;;;14.47;75.45;98449.56;329421;29;17634;-73
2023/04/24 00:05:27;;;;;;;1.02;0.82;;;;;;;14.46;75.67;98447.88;329976;29;5604;-73
2023/04/24 00:05:40;;;;;;;1.38;0.93;;;;;;;14.46;75.94;98447.88;328992;29;18451;-73
2023/04/24 00:05:52;;;;;;;1.95;1.00;;;;;;;14.46;75.91;98447.88;329724;29;5308;-73
2023/04/24 00:06:06;;;;;;;1.88;0.90;;;;;;;14.47;75.63;98445.19;328964;29;19427;-73
2023/04/24 00:06:18;;;;;;;2.28;0.90;;;;;;;14.46;75.46;98453.13;328859;29;9550;-73
2023/04/24 00:06:33;;;;;;;2.50;1.08;;;;;;;14.46;75.15;98448.72;331535;29;4659;-73
2023/04/24 00:06:49;;;;;;;1.55;1.00;;;;;;;14.46;75.21;98447.88;328739;29;17546;-73
2023/04/24 00:07:01;;;;;;;1.92;0.82;;;;;;;14.46;75.38;98440.88;328498;29;16592;-73
2023/04/24 00:07:14;;;;;;;1.80;0.80;;;;;;;14.46;75.50;98442.66;330520;29;11111;-73
2023/04/24 00:07:26;;;;;;;1.13;0.80;;;;;;;14.49;75.46;98445.09;332961;29;4655;-73
2023/04/24 00:07:37;;;;;;;1.13;0.85;;;;;;;14.48;75.31;98441.59;332970;29;5168;-73
2023/04/24 00:07:52;;;;;;;1.65;0.90;;;;;;;14.48;75.14;98439.00;330302;29;18366;-73
2023/04/24 00:08:04;;;;;;;1.77;0.98;;;;;;;14.51;75.17;98445.81;330281;29;18004;-73
2023/04/24 00:08:16;;;;;;;1.98;0.90;;;;;;;14.53;75.38;98443.94;334668;29;5250;-73
2023/04/24 00:08:28;;;;;;;2.05;0.88;;;;;;;14.54;75.45;98445.59;331622;29;17764;-73
2023/04/24 00:08:40;;;;;;;2.80;0.90;;;;;;;14.57;75.46;98450.66;334513;29;4580;-73
2023/04/24 00:08:52;;;;;;;1.73;0.80;;;;;;;14.57;75.47;98450.66;333853;29;4589;-73
2023/04/24 00:09:04;;;;;;;1.83;0.75;;;;;;;14.56;75.83;98443.75;330974;29;18217;-73
2023/04/24 00:09:16;;;;;;;1.35;0.73;;;;;;;14.57;75.74;98450.66;333824;29;4808;-73
2023/04/24 00:09:28;;;;;;;1.48;0.70;;;;;;;14.58;75.58;98447.91;331016;29;16817;-73
2023/04/24 00:09:40;;;;;;;1.85;0.70;;;;;;;14.58;75.46;98441.84;333755;29;4652;-73
2023/04/24 00:09:53;;;;;;;1.20;0.70;;;;;;;14.60;75.52;98450.44;333063;29;4690;-73
2023/04/24 00:10:05;;;;;;;0.90;0.73;;;;;;;14.58;75.58;98445.28;330623;29;18017;-73
2023/04/24 00:10:17;;;;;;;0.95;0.77;;;;;;;14.57;75.36;98442.81;333543;29;5319;-73
2023/04/24 00:10:30;;;;;;;1.30;0.75;;;;;;;14.58;74.97;98452.31;331794;29;18870;-73
2023/04/24 00:10:42;;;;;;;1.42;0.70;;;;;;;14.57;74.65;98445.44;332599;29;5597;-73
2023/04/24 00:10:54;;;;;;;1.70;0.73;;;;;;;14.55;74.76;98442.88;330544;29;17166;-73
2023/04/24 00:11:06;;;;;;;1.63;0.90;;;;;;;14.55;74.71;98442.03;332628;29;4630;-73
2023/04/24 00:11:21;;;;;;;1.17;0.80;;;;;;;14.57;74.44;98450.66;334400;29;5229;-73
2023/04/24 00:11:33;;;;;;;0.95;0.73;;;;;;;14.57;74.43;98445.44;332712;29;17803;-73
2023/04/24 00:11:44;;;;;;;1.90;0.70;;;;;;;14.58;74.47;98447.09;330112;29;18212;-73
2023/04/24 00:11:57;;;;;;;1.83;0.73;;;;;;;14.58;73.96;98441.84;334280;29;4508;-73
2023/04/24 00:12:09;;;;;;;2.05;0.80;;;;;;;14.59;73.85;98438.31;332045;29;4649;-73
2023/04/24 00:12:21;;;;;;;1.42;0.85;;;;;;;14.60;73.55;98439.97;333007;29;4540;-73
2023/04/24 00:12:34;;;;;;;1.70;0.80;;;;;;;14.62;73.57;98443.31;330324;29;16277;-73
2023/04/24 00:12:46;;;;;;;2.40;0.80;;;;;;;14.58;73.65;98441.84;332886;29;5067;-73
2023/04/24 00:12:58;;;;;;;3.08;0.90;;;;;;;14.59;73.85;98438.31;329664;29;5394;-73
2023/04/24 00:13:10;;;;;;;3.38;1.00;;;;;;;14.60;73.60;98439.13;332540;29;4877;-73
2023/04/24 00:13:22;;;;;;;2.75;1.08;;;;;;;14.59;73.60;98443.53;331832;29;5275;-73
2023/04/24 00:13:34;;;;;;;1.63;1.00;;;;;;;14.59;73.44;98446.16;330246;29;17922;-73
2023/04/24 00:13:46;;;;;;;1.40;0.90;;;;;;;14.61;73.46;98438.19;333244;29;4768;-73
2023/04/24 00:13:58;;;;;;;1.65;0.95;;;;;;;14.60;73.21;98439.97;330206;29;17213;-73
2023/04/24 00:14:10;;;;;;;1.77;0.98;;;;;;;14.61;73.37;98436.44;332919;29;4745;-73
2023/04/24 00:14:22;;;;;;;1.35;0.90;;;;;;;14.61;73.48;98439.03;333490;29;4603;-73
2023/04/24 00:14:35;;;;;;;1.00;0.90;;;;;;;14.61;73.87;98436.44;330613;29;18362;-73
2023/04/24 00:14:47;;;;;;;1.08;0.80;;;;;;;14.62;73.69;98437.25;333228;29;4690;-73
2023/04/24 00:14:59;;;;;;;1.40;0.90;;;;;;;14.63;73.73;98439.78;331249;29;17925;-73
2023/04/24 00:15:11;;;;;;;1.30;0.85;;;;;;;14.64;73.64;98432.75;334420;29;5215;-73
2023/04/24 00:15:23;;;;;;;0.93;0.80;;;;;;;14.63;74.02;98431.94;332423;29;5864;-73
2023/04/24 00:15:35;;;;;;;1.40;0.70;;;;;;;14.62;74.19;98435.47;329570;29;18035;-73
2023/04/24 00:15:47;;;;;;;1.75;0.90;;;;;;;14.61;74.21;98430.34;331965;29;4554;-73
2023/04/24 00:15:59;;;;;;;1.92;0.90;;;;;;;14.61;74.03;98435.56;329041;29;17770;-73
2023/04/24 00:16:11;;;;;;;2.70;0.90;;;;;;;14.58;74.43;98431.41;323446;29;4589;-73
2023/04/24 00:16:23;;;;;;;2.67;0.90;;;;;;;14.60;74.47;98429.50;329107;29;6569;-73
2023/04/24 00:16:35;;;;;;;2.00;0.88;;;;;;;14.61;74.37;98432.94;332389;29;4518;-73
2023/04/24 00:16:47;;;;;;;1.40;0.90;;;;;;;14.61;74.32;98436.44;330778;29;5457;-73
2023/04/24 00:16:59;;;;;;;1.38;0.82;;;;;;;14.60;74.67;98432.13;325976;29;17977;-73
2023/04/24 00:17:12;;;;;;;1.65;0.90;;;;;;;14.59;74.51;98433.09;328953;29;4588;-73
2023/04/24 00:17:24;;;;;;;1.65;0.90;;;;;;;14.61;75.04;98432.94;327016;29;18217;-73
2023/04/24 00:17:36;;;;;;;1.55;0.90;;;;;;;14.59;74.96;98430.47;328379;29;4522;-73
2023/04/24 00:17:48;;;;;;;1.40;0.90;;;;;;;14.60;74.45;98434.75;330291;29;4595;-73
2023/04/24 00:18:01;;;;;;;1.38;0.80;;;;;;;14.61;74.56;98425.97;327918;29;17976;-73
2023/04/24 00:18:13;;;;;;;1.10;0.70;;;;;;;14.60;74.59;98429.50;332401;29;4954;-73
2023/04/24 00:18:25;;;;;;;1.10;0.70;;;;;;;14.59;74.50;98430.47;329505;29;17742;-73
2023/04/24 00:18:37;;;;;;;1.50;0.90;;;;;;;14.56;74.49;98433.28;331389;29;4570;-73
2023/04/24 00:18:49;;;;;;;1.73;0.90;;;;;;;14.53;74.57;98428.25;329382;29;5007;-73
2023/04/24 00:19:01;;;;;;;2.78;0.95;;;;;;;14.53;75.02;98439.53;330792;29;4740;-73
2023/04/24 00:19:13;;;;;;;2.90;1.00;;;;;;;14.51;75.00;98433.56;327272;29;9994;-73
2023/04/24 00:19:26;;;;;;;1.10;0.80;;;;;;;14.52;74.77;98437.00;321580;29;5643;-73
2023/04/24 00:19:38;;;;;;;1.10;0.90;;;;;;;14.54;74.50;98440.34;330012;29;17776;-73
2023/04/24 00:19:58;;;;;;;1.50;0.90;;;;;;;14.54;74.80;98429.91;327989;29;17968;-73
2023/04/24 00:20:10;;;;;;;2.88;0.80;;;;;;;14.56;74.99;98428.03;329049;29;17313;-73
2023/04/24 00:20:22;;;;;;;2.42;0.85;;;;;;;14.56;74.82;98428.88;331021;29;5214;-73
2023/04/24 00:20:35;;;;;;;1.88;0.80;;;;;;;14.56;74.96;98428.88;327388;29;5547;-73
2023/04/24 00:20:47;;;;;;;2.22;0.80;;;;;;;14.58;74.73;98434.00;331790;29;4546;-73
2023/04/24 00:20:59;;;;;;;2.75;0.98;;;;;;;14.58;73.91;98429.59;329431;29;7815;-73
2023/04/24 00:21:11;;;;;;;3.08;0.98;;;;;;;14.57;73.38;98434.97;333304;29;4563;-73
2023/04/24 00:21:29;;;;;;;3.17;0.88;;;;;;;14.58;73.25;98434.00;330874;29;10691;-73
2023/04/24 00:21:41;;;;;;;2.10;0.77;;;;;;;14.61;72.82;98441.66;330467;29;17731;-73
2023/04/24 00:21:54;;;;;;;1.88;0.82;;;;;;;14.63;72.65;98431.06;330662;29;9008;-73
2023/04/24 00:22:06;;;;;;;2.20;0.93;;;;;;;14.63;72.45;98429.31;333361;29;5481;-73
2023/04/24 00:22:20;;;;;;;3.35;0.80;;;;;;;14.64;72.39;98428.34;330731;29;9462;-73
2023/04/24 00:22:33;;;;;;;3.65;0.80;;;;;;;14.66;72.58;98433.50;334165;29;4638;-73
2023/04/24 00:22:45;;;;;;;2.38;0.90;;;;;;;14.67;72.45;98436.00;329736;29;18007;-73
2023/04/24 00:22:57;;;;;;;2.58;0.82;;;;;;;14.67;72.67;98430.78;333733;29;4673;-73
2023/04/24 00:23:09;;;;;;;3.10;0.90;;;;;;;14.68;72.97;98429.81;330879;29;17495;-73
2023/04/24 00:23:21;;;;;;;2.55;0.88;;;;;;;14.60;72.03;98429.50;333732;29;4660;-73
2023/04/24 00:23:33;;;;;;;2.50;0.77;;;;;;;14.52;71.22;98434.41;333828;29;4767;-73
2023/04/24 00:23:45;;;;;;;1.75;0.68;;;;;;;14.46;70.89;98432.19;330830;29;17944;-73
2023/04/24 00:23:57;;;;;;;2.40;0.73;;;;;;;14.43;70.91;98427.16;331788;29;4683;-73
2023/04/24 00:24:09;;;;;;;2.40;0.80;;;;;;;14.46;70.59;98435.66;330834;29;10679;-74
2023/04/24 00:24:21;;;;;;;1.63;0.77;;;;;;;14.48;70.79;98435.56;333468;29;4676;-73
2023/04/24 00:24:33;;;;;;;0.90;0.65;;;;;;;14.49;70.70;98426.78;333619;29;4613;-73
2023/04/24 00:24:45;;;;;;;0.77;0.60;;;;;;;14.49;70.91;98432.00;330672;29;18236;-73
2023/04/24 00:24:57;;;;;;;0.80;0.60;;;;;;;14.50;70.92;98434.50;326700;29;4596;-73
2023/04/24 00:25:09;;;;;;;1.17;0.60;;;;;;;14.52;70.91;98437.00;328356;29;15960;-73
2023/04/24 00:25:21;;;;;;;1.38;0.63;;;;;;;14.53;70.94;98433.47;332821;29;5566;-73
2023/04/24 00:25:33;;;;;;;1.33;0.70;;;;;;;14.56;70.86;98430.66;332296;29;8852;-73
2023/04/24 00:25:45;;;;;;;0.90;0.70;;;;;;;14.59;70.89;98433.09;328402;29;17873;-73
2023/04/24 00:25:57;;;;;;;0.63;0.52;;;;;;;14.61;70.61;98430.34;332179;29;5718;-73
2023/04/24 00:26:10;;;;;;;0.60;0.50;;;;;;;14.62;70.52;98435.47;329031;29;17954;-73
2023/04/24 00:26:22;;;;;;;1.00;0.60;;;;;;;14.61;70.74;98433.81;328311;29;5199;-73
2023/04/24 00:26:34;;;;;;;1.05;0.70;;;;;;;14.59;70.73;98433.09;327965;29;18035;-73
2023/04/24 00:26:50;;;;;;;1.25;0.70;;;;;;;14.61;70.66;98436.44;327881;29;4650;-73
2023/04/24 00:27:02;;;;;;;1.30;0.60;;;;;;;14.63;69.97;98441.53;323887;29;17481;-73
2023/04/24 00:27:14;;;;;;;1.00;0.55;;;;;;;14.61;69.55;98436.44;324844;29;18017;-73
2023/04/24 00:27:26;;;;;;;1.00;0.60;;;;;;;14.62;69.94;98443.31;329701;29;5392;-73
2023/04/24 00:27:38;;;;;;;0.80;0.60;;;;;;;14.61;70.06;98441.66;328400;29;5774;-73
2023/04/24 00:27:51;;;;;;;1.48;0.60;;;;;;;14.63;70.33;98442.38;325740;29;17928;-73
2023/04/24 00:28:03;;;;;;;2.00;0.60;;;;;;;14.60;69.93;98444.38;330062;29;5255;-73
2023/04/24 00:28:15;;;;;;;2.13;0.60;;;;;;;14.62;69.94;98439.88;326520;29;18170;-73
2023/04/24 00:28:27;;;;;;;2.05;0.65;;;;;;;14.62;69.99;98439.88;330279;29;4656;-74
2023/04/24 00:28:40;;;;;;;1.83;0.70;;;;;;;14.60;69.67;98437.34;328484;29;17780;-73
2023/04/24 00:28:52;;;;;;;1.60;0.70;;;;;;;14.57;70.33;98443.63;332723;29;5128;-73
2023/04/24 00:29:04;;;;;;;1.52;0.70;;;;;;;14.57;70.40;98445.44;331018;29;10839;-73
2023/04/24 00:29:16;;;;;;;0.90;0.60;;;;;;;14.60;70.47;98434.75;330330;29;4934;-73
2023/04/24 00:29:28;;;;;;;1.40;0.60;;;;;;;14.60;70.55;98433.91;332465;29;5645;-73
2023/04/24 00:29:40;;;;;;;1.50;0.60;;;;;;;14.62;70.48;98435.47;328740;29;18092;-73
2023/04/24 00:29:52;;;;;;;1.10;0.60;;;;;;;14.63;70.45;98434.53;333763;29;5268;-73
2023/04/24 00:30:07;;;;;;;1.05;0.55;;;;;;;14.62;70.38;98435.47;330669;29;18401;-73
2023/04/24 00:30:20;;;;;;;1.08;0.50;;;;;;;14.64;70.29;98432.75;330663;29;17911;-73
2023/04/24 00:30:32;;;;;;;1.30;0.70;;;;;;;14.64;70.64;98441.44;333379;29;5486;-73
2023/04/24 00:30:44;;;;;;;1.13;0.80;;;;;;;14.67;70.53;98443.00;329960;29;16462;-73
2023/04/24 00:30:56;;;;;;;1.40;0.80;;;;;;;14.68;70.79;98436.84;333814;29;4633;-73
2023/04/24 00:31:08;;;;;;;1.90;0.80;;;;;;;14.68;70.12;98440.28;329458;29;4831;-73
2023/04/24 00:31:20;;;;;;;2.17;0.68;;;;;;;14.63;69.01;98439.78;329602;29;19160;-73
2023/04/24 00:31:34;;;;;;;1.50;0.57;;;;;;;14.65;68.76;98443.13;332528;29;4787;-73
2023/04/24 00:31:47;;;;;;;1.50;0.50;;;;;;;14.64;68.91;98441.44;328944;29;17881;-73
2023/04/24 00:32:03;;;;;;;1.27;0.68;;;;;;;14.67;68.82;98441.22;329562;29;18191;-73
2023/04/24 00:32:15;;;;;;;0.90;0.63;;;;;;;14.66;68.66;98439.53;329956;29;17998;-73
2023/04/24 00:32:27;;;;;;;0.80;0.65;;;;;;;14.66;68.49;98439.53;334083;29;4617;-73
2023/04/24 00:32:39;;;;;;;1.33;0.57;;;;;;;14.64;67.80;98440.59;331235;29;18366;-73
2023/04/24 00:32:51;;;;;;;1.80;0.60;;;;;;;14.62;67.75;98438.09;333635;29;6571;-73
2023/04/24 00:33:03;;;;;;;1.83;0.70;;;;;;;14.62;68.62;98438.09;330958;29;10451;-73
2023/04/24 00:33:15;;;;;;;1.75;0.60;;;;;;;14.61;68.26;98441.66;332554;29;4636;-73
2023/04/24 00:33:27;;;;;;;1.48;0.60;;;;;;;14.64;68.49;98438.00;332912;29;4704;-73
2023/04/24 00:33:40;;;;;;;1.52;0.50;;;;;;;14.65;68.85;98440.50;329598;29;17178;-73
2023/04/24 00:33:52;;;;;;;1.15;0.50;;;;;;;14.64;69.35;98438.81;331106;29;4597;-73
2023/04/24 00:34:04;;;;;;;1.52;0.65;;;;;;;14.66;69.39;98444.78;330351;29;17395;-73
2023/04/24 00:34:16;;;;;;;1.35;0.65;;;;;;;14.65;69.41;98448.34;331998;29;4667;-73
2023/04/24 00:34:28;;;;;;;1.10;0.50;;;;;;;14.66;69.49;98439.53;332027;29;4728;-73
2023/04/24 00:34:41;;;;;;;1.70;0.60;;;;;;;14.67;69.65;98436.00;332000;29;19299;-73
2023/04/24 00:34:53;;;;;;;1.70;0.55;;;;;;;14.68;69.69;98442.88;333657;29;4772;-73
2023/04/24 00:35:05;;;;;;;2.53;0.55;;;;;;;14.69;69.47;98439.34;330530;29;18187;-73
2023/04/24 00:35:19;;;;;;;2.70;0.60;;;;;;;14.68;68.95;98448.13;333890;29;4555;-73
2023/04/24 00:35:31;;;;;;;1.75;0.60;;;;;;;14.69;68.99;98441.97;330154;29;18239;-73
2023/04/24 00:35:43;;;;;;;0.88;0.63;;;;;;;14.71;68.89;98440.09;333373;29;6862;-73
2023/04/24 00:35:55;;;;;;;1.48;0.60;;;;;;;14.72;69.06;98444.34;329068;29;17720;-73
2023/04/24 00:36:07;;;;;;;1.80;0.57;;;;;;;14.73;69.13;98440.81;332201;29;4654;-73
2023/04/24 00:36:20;;;;;;;1.80;0.60;;;;;;;14.75;69.01;98438.09;330087;29;9447;-73
2023/04/24 00:36:32;;;;;;;1.08;0.50;;;;;;;14.74;69.36;98442.47;332747;29;4547;-73
2023/04/24 00:36:44;;;;;;;1.10;0.50;;;;;;;14.75;69.69;98438.09;329627;29;19165;-73
2023/04/24 00:37:04;;;;;;;0.90;0.50;;;;;;;14.77;69.59;98442.28;332668;29;4665;-73
2023/04/24 00:37:16;;;;;;;0.68;0.40;;;;;;;14.77;69.34;98436.22;328974;29;18854;-73
2023/04/24 00:37:28;;;;;;;0.40;0.40;;;;;;;14.78;69.22;98437.88;331839;29;4671;-73
2023/04/24 00:37:40;;;;;;;1.10;0.40;;;;;;;14.78;69.31;98443.09;329349;29;17821;-73
2023/04/24 00:37:52;;;;;;;1.98;0.57;;;;;;;14.80;69.41;98435.16;333575;29;7354;-73
2023/04/24 00:38:04;;;;;;;2.50;0.60;;;;;;;14.81;69.37;98431.56;331964;29;18087;-73
2023/04/24 00:38:16;;;;;;;1.90;0.60;;;;;;;14.77;68.74;98439.66;334618;29;5694;-73
2023/04/24 00:38:28;;;;;;;1.70;0.60;;;;;;;14.76;68.85;98444.97;333146;29;4871;-73
2023/04/24 00:38:41;;;;;;;1.60;0.57;;;;;;;14.78;68.96;98436.09;329878;29;19664;-73
2023/04/24 00:38:54;;;;;;;0.88;0.50;;;;;;;14.81;68.83;98437.66;332364;29;17994;-73
2023/04/24 00:39:08;;;;;;;0.70;0.43;;;;;;;14.83;68.87;98440.16;331776;29;18509;-73
2023/04/24 00:39:21;;;;;;;1.02;0.60;;;;;;;14.84;68.45;98441.84;328957;29;17878;-73
2023/04/24 00:39:33;;;;;;;1.40;0.68;;;;;;;14.86;68.44;98439.97;333437;29;4651;-73
2023/04/24 00:39:45;;;;;;;1.73;0.70;;;;;;;14.76;67.25;98442.38;331007;29;18205;-73
2023/04/24 00:39:57;;;;;;;1.67;0.60;;;;;;;14.75;67.26;98438.94;333849;29;5621;-73
2023/04/24 00:40:10;;;;;;;1.27;0.50;;;;;;;14.76;67.17;98443.19;330790;29;5074;-73
2023/04/24 00:40:22;;;;;;;1.40;0.50;;;;;;;14.73;67.01;98435.59;333820;29;4705;-73
2023/04/24 00:40:34;;;;;;;1.80;0.52;;;;;;;14.74;67.17;98442.47;330581;29;4552;-73
2023/04/24 00:40:47;;;;;;;1.90;0.60;;;;;;;14.74;66.96;98442.47;331349;29;17551;-73
2023/04/24 00:40:59;;;;;;;1.92;0.70;;;;;;;14.77;67.33;98441.44;330085;29;18075;-73
2023/04/24 00:41:11;;;;;;;1.95;0.70;;;;;;;14.79;67.40;98439.56;333385;29;4631;-73
2023/04/24 00:41:25;;;;;;;1.80;0.70;;;;;;;14.80;67.48;98435.97;333618;29;5088;-73
2023/04/24 00:41:37;;;;;;;1.20;0.60;;;;;;;14.81;67.34;98442.03;331426;29;17924;-73
2023/04/24 00:41:50;;;;;;;0.88;0.60;;;;;;;14.82;67.53;98433.28;329382;29;8832;-73
2023/04/24 00:42:08;;;;;;;1.38;0.68;;;;;;;14.84;67.46;98441.84;328415;29;17918;-73
2023/04/24 00:42:26;;;;;;;1.50;0.70;;;;;;;14.85;67.34;98435.66;329688;29;17858;-73
2023/04/24 00:42:40;;;;;;;2.10;0.57;;;;;;;14.83;66.63;98437.53;328606;29;17836;-73
2023/04/24 00:42:52;;;;;;;2.35;0.50;;;;;;;14.84;66.39;98437.44;328171;29;18161;-73
2023/04/24 00:43:04;;;;;;;1.40;0.50;;;;;;;14.76;65.65;98435.34;330032;29;10328;-73
2023/04/24 00:43:20;;;;;;;1.00;0.50;;;;;;;14.74;65.12;98437.25;330041;29;17391;-73
2023/04/24 00:43:32;;;;;;;0.93;0.40;;;;;;;14.77;65.12;98428.38;333376;29;5226;-73
2023/04/24 00:43:45;;;;;;;1.52;0.40;;;;;;;14.77;65.11;98439.66;329641;29;18060;-73
2023/04/24 00:43:58;;;;;;;1.80;0.40;;;;;;;14.75;65.30;98431.06;333287;29;4811;-73
2023/04/24 00:44:10;;;;;;;1.02;0.50;;;;;;;14.70;64.85;98441.00;330906;29;18265;-73
2023/04/24 00:44:22;;;;;;;0.73;0.50;;;;;;;14.66;64.88;98436.09;332071;29;4813;-73
2023/04/24 00:44:36;;;;;;;0.68;0.50;;;;;;;14.61;65.12;98439.03;330643;29;18716;-73
2023/04/24 00:44:49;;;;;;;0.90;0.60;;;;;;;14.62;65.24;98435.47;316671;29;9277;-73
2023/04/24 00:45:03;;;;;;;1.33;0.60;;;;;;;14.67;65.19;98437.75;331522;29;4683;-73
2023/04/24 00:45:15;;;;;;;2.75;0.52;;;;;;;14.69;65.16;98431.50;327959;29;9969;-73
2023/04/24 00:45:27;;;;;;;2.30;0.45;;;;;;;14.71;65.23;98436.63;330228;29;5122;-73
2023/04/24 00:45:39;;;;;;;0.68;0.47;;;;;;;14.70;65.10;98435.78;329892;29;5077;-73
2023/04/24 00:45:51;;;;;;;0.50;0.40;;;;;;;14.74;65.15;98434.63;328802;29;18139;-73
2023/04/24 00:46:04;;;;;;;0.60;0.50;;;;;;;14.73;65.14;98435.59;332253;29;4743;-73
2023/04/24 00:46:16;;;;;;;1.60;0.43;;;;;;;14.71;65.13;98434.84;330274;29;18242;-73
2023/04/24 00:46:31;;;;;;;1.50;0.50;;;;;;;14.58;65.63;98436.63;331302;29;4602;-73
2023/04/24 00:46:43;;;;;;;0.73;0.50;;;;;;;14.62;65.78;98438.09;331609;29;5253;-73
2023/04/24 00:46:56;;;;;;;0.90;0.50;;;;;;;14.63;65.98;98437.16;326702;29;17504;-73
2023/04/24 00:47:11;;;;;;;0.98;0.50;;;;;;;14.63;66.20;98436.31;333911;29;4747;-73
2023/04/24 00:47:30;;;;;;;1.02;0.50;;;;;;;14.65;66.21;98442.25;328083;29;17959;-73
2023/04/24 00:47:46;;;;;;;0.90;0.50;;;;;;;14.65;65.83;98440.50;327827;29;17469;-73
2023/04/24 00:48:00;;;;;;;1.00;0.50;;;;;;;14.67;65.67;98430.78;330012;29;18136;-73
2023/04/24 00:48:12;;;;;;;1.73;0.57;;;;;;;14.65;65.33;98437.88;328915;29;18560;-73
2023/04/24 00:48:25;;;;;;;2.53;0.70;;;;;;;14.65;65.38;98430.03;329750;29;4808;-73
2023/04/24 00:48:39;;;;;;;2.03;0.60;;;;;;;14.58;65.01;98431.41;333188;29;4514;-73
2023/04/24 00:48:51;;;;;;;1.80;0.57;;;;;;;14.56;65.35;98428.88;329668;29;17868;-73
2023/04/24 00:49:05;;;;;;;1.60;0.60;;;;;;;14.52;65.49;98434.41;332045;29;4687;-73
2023/04/24 00:49:18;;;;;;;1.77;0.60;;;;;;;14.49;65.39;98437.25;328282;29;17917;-73
2023/04/24 00:49:30;;;;;;;1.70;0.50;;;;;;;14.47;65.51;98431.28;329551;29;17830;-73
2023/04/24 00:49:42;;;;;;;1.92;0.50;;;;;;;14.48;65.61;98435.56;332649;29;5597;-73
2023/04/24 00:49:55;;;;;;;2.08;0.50;;;;;;;14.51;65.68;98425.72;327926;29;17036;-73
2023/04/24 00:50:08;;;;;;;1.55;0.50;;;;;;;14.52;65.60;98439.63;331967;29;4708;-73
2023/04/24 00:50:21;;;;;;;0.82;0.43;;;;;;;14.51;65.20;98430.94;331199;29;10149;-73
2023/04/24 00:50:36;;;;;;;0.70;0.40;;;;;;;14.48;65.55;98433.75;332075;29;5442;-73
2023/04/24 00:50:48;;;;;;;0.73;0.40;;;;;;;14.50;65.52;98434.50;327784;29;17703;-73
2023/04/24 00:51:00;;;;;;;0.85;0.40;;;;;;;14.50;65.42;98433.66;330242;29;18202;-73
2023/04/24 00:51:12;;;;;;;0.90;0.40;;;;;;;14.52;65.28;98437.84;332902;29;5633;-73
2023/04/24 00:51:24;;;;;;;0.70;0.35;;;;;;;14.54;65.14;98429.91;329962;29;9686;-73
2023/04/24 00:51:38;;;;;;;0.85;0.50;;;;;;;14.52;64.86;98439.63;332809;29;5523;-73
2023/04/24 00:51:51;;;;;;;2.08;0.57;;;;;;;14.50;64.87;98431.06;329847;29;18012;-73
2023/04/24 00:52:07;;;;;;;2.05;0.50;;;;;;;14.52;65.16;98439.63;324324;29;5389;-73
2023/04/24 00:52:20;;;;;;;1.10;0.47;;;;;;;14.49;65.14;98432.84;328794;29;17702;-73
2023/04/24 00:52:35;;;;;;;1.45;0.50;;;;;;;14.50;65.49;98438.91;332901;29;5541;-73
2023/04/24 00:52:48;;;;;;;1.27;0.50;;;;;;;14.53;65.43;98433.47;329458;29;17948;-73
2023/04/24 00:53:00;;;;;;;2.00;0.50;;;;;;;14.52;65.42;98431.78;326424;29;17349;-73
2023/04/24 00:53:13;;;;;;;2.25;0.50;;;;;;;14.52;65.44;98437.00;332189;29;4637;-73
2023/04/24 00:53:25;;;;;;;1.70;0.50;;;;;;;14.51;65.45;98433.56;328719;29;18103;-73
2023/04/24 00:53:37;;;;;;;1.25;0.50;;;;;;;14.51;65.09;98432.75;331949;29;4696;-73
2023/04/24 00:53:49;;;;;;;0.68;0.50;;;;;;;14.52;65.39;98434.41;328591;29;4766;-73
2023/04/24 00:54:01;;;;;;;0.47;0.40;;;;;;;14.53;65.29;98436.91;332036;29;4592;-73
2023/04/24 00:54:13;;;;;;;0.57;0.40;;;;;;;14.55;65.53;98431.59;332058;29;5057;-73
2023/04/24 00:54:25;;;;;;;1.13;0.47;;;;;;;14.57;65.75;98434.97;330578;29;18128;-73
2023/04/24 00:54:37;;;;;;;1.40;0.50;;;;;;;14.58;65.89;98431.41;332270;29;5180;-73
2023/04/24 00:54:49;;;;;;;1.75;0.40;;;;;;;14.60;65.96;98428.69;328097;29;9912;-73
2023/04/24 00:55:01;;;;;;;1.80;0.50;;;;;;;14.57;65.70;98427.13;331811;29;5817;-73
2023/04/24 00:55:13;;;;;;;2.45;0.50;;;;;;;14.53;65.49;98433.47;330978;29;5773;-73
2023/04/24 00:55:26;;;;;;;2.13;0.55;;;;;;;14.49;65.31;98437.25;328875;29;17872;-73
2023/04/24 00:55:38;;;;;;;1.35;0.47;;;;;;;14.47;65.47;98439.13;329692;29;5327;-73
2023/04/24 00:55:51;;;;;;;1.33;0.38;;;;;;;14.49;65.67;98432.00;327400;29;19177;-73
2023/04/24 00:56:04;;;;;;;1.25;0.40;;;;;;;14.50;65.81;98431.88;329133;29;5565;-73
2023/04/24 00:56:17;;;;;;;1.60;0.47;;;;;;;14.52;66.16;98429.16;325810;29;17043;-73
2023/04/24 00:56:29;;;;;;;1.80;0.45;;;;;;;14.48;65.78;98436.38;331028;29;4685;-73
2023/04/24 00:56:42;;;;;;;0.85;0.45;;;;;;;14.48;66.00;98438.16;321555;29;18173;-73
2023/04/24 00:56:54;;;;;;;0.68;0.43;;;;;;;14.48;65.68;98435.56;329584;29;17580;-73
2023/04/24 00:57:07;;;;;;;0.98;0.40;;;;;;;14.46;65.86;98432.19;330149;29;4659;-73
2023/04/24 00:57:19;;;;;;;1.52;0.40;;;;;;;14.53;65.63;98438.69;333046;29;5536;-73
2023/04/24 00:57:31;;;;;;;3.30;0.43;;;;;;;14.54;65.20;98429.91;328611;29;18938;-73
2023/04/24 00:57:47;;;;;;;3.15;0.50;;;;;;;14.56;65.29;98430.66;331618;29;4611;-74
2023/04/24 00:57:59;;;;;;;1.20;0.50;;;;;;;14.55;65.18;98434.19;329319;29;17798;-73
2023/04/24 00:58:12;;;;;;;1.02;0.52;;;;;;;14.51;65.07;98432.75;326735;29;15923;-73
2023/04/24 00:58:24;;;;;;;0.50;0.50;;;;;;;14.50;64.83;98423.22;332638;29;4578;-73
2023/04/24 00:58:36;;;;;;;0.57;0.40;;;;;;;14.48;64.77;98427.69;327751;29;18303;-73
2023/04/24 00:58:49;;;;;;;0.60;0.40;;;;;;;14.50;64.71;98425.81;330915;29;5389;-73
2023/04/24 00:59:01;;;;;;;1.17;0.50;;;;;;;14.50;64.63;98423.22;326043;29;18105;-73
2023/04/24 00:59:16;;;;;;;1.50;0.50;;;;;;;14.48;64.68;98430.31;330955;29;5276;-73
2023/04/24 00:59:28;;;;;;;2.42;0.40;;;;;;;14.49;64.85;98432.84;329474;29;18393;-73
2023/04/24 00:59:41;;;;;;;1.45;0.30;;;;;;;14.50;65.04;98433.66;330798;29;17709;-73
2023/04/24 00:59:58;;;;;;;1.70;0.40;;;;;;;14.48;65.26;98431.16;331973;29;4692;-73
2023/04/24 01:00:11;;;;;;;3.00;0.50;;;;;;;14.45;65.65;98431.38;328708;29;17519;-73
2023/04/24 01:00:24;;;;;;;2.80;0.57;;;;;;;14.48;65.51;98430.31;322895;29;5405;-73
2023/04/24 01:00:36;;;;;;;2.28;0.50;;;;;;;14.49;65.88;98422.38;328209;29;18814;-73
2023/04/24 01:00:50;;;;;;;1.40;0.40;;;;;;;14.51;65.80;98424.91;329927;29;4640;-73
2023/04/24 01:01:06;;;;;;;0.90;0.40;;;;;;;14.52;66.07;98431.78;328258;29;18179;-73